sensor_id;sensor_type;location;lat;lon;timestamp;P1;durP1;ratioP1;P2;durP2;ratioP2
47804;SDS011;33568;45.286;9.900;2022-07-10T00:01:36;4.15;;;1.83;;
47804;SDS011;33568;45.286;9.900;2022-07-10T00:04:03;3.00;;;1.25;;
47804;SDS011;33568;45.286;9.900;2022-07-10T00:06:29;3.33;;;1.27;;
47804;SDS011;33568;45.286;9.900;2022-07-10T00:08:55;2.70;;;1.33;;
47804;SDS011;33568;45.286;9.900;2022-07-10T00:11:22;2.70;;;1.40;;
47804;SDS011;33568;45.286;9.900;2022-07-10T00:13:48;5.07;;;1.65;;
47804;SDS011;33568;45.286;9.900;2022-07-10T00:16:15;2.58;;;1.50;;
47804;SDS011;33568;45.286;9.900;2022-07-10T00:18:41;4.20;;;1.75;;
47804;SDS011;33568;45.286;9.900;2022-07-10T00:21:08;2.90;;;1.55;;
47804;SDS011;33568;45.286;9.900;2022-07-10T00:23:34;2.58;;;1.50;;
47804;SDS011;33568;45.286;9.900;2022-07-10T00:26:00;4.80;;;2.03;;
47804;SDS011;33568;45.286;9.900;2022-07-10T00:28:27;2.20;;;1.35;;
47804;SDS011;33568;45.286;9.900;2022-07-10T00:30:53;3.30;;;1.70;;
47804;SDS011;33568;45.286;9.900;2022-07-10T00:33:22;1.95;;;1.40;;
47804;SDS011;33568;45.286;9.900;2022-07-10T00:35:48;5.30;;;1.88;;
47804;SDS011;33568;45.286;9.900;2022-07-10T00:38:14;2.95;;;1.40;;
47804;SDS011;33568;45.286;9.900;2022-07-10T00:40:41;4.15;;;1.58;;
47804;SDS011;33568;45.286;9.900;2022-07-10T00:43:08;6.13;;;1.55;;
47804;SDS011;33568;45.286;9.900;2022-07-10T00:45:35;1.85;;;1.38;;
47804;SDS011;33568;45.286;9.900;2022-07-10T00:48:01;4.78;;;1.73;;
47804;SDS011;33568;45.286;9.900;2022-07-10T00:50:30;3.72;;;1.83;;
47804;SDS011;33568;45.286;9.900;2022-07-10T00:52:57;4.10;;;1.38;;
47804;SDS011;33568;45.286;9.900;2022-07-10T00:55:23;5.00;;;1.88;;
47804;SDS011;33568;45.286;9.900;2022-07-10T00:57:50;2.83;;;1.52;;
47804;SDS011;33568;45.286;9.900;2022-07-10T01:00:17;2.88;;;1.30;;
47804;SDS011;33568;45.286;9.900;2022-07-10T01:02:44;4.03;;;1.85;;
47804;SDS011;33568;45.286;9.900;2022-07-10T01:05:11;4.25;;;1.48;;
47804;SDS011;33568;45.286;9.900;2022-07-10T01:07:37;5.65;;;1.70;;
47804;SDS011;33568;45.286;9.900;2022-07-10T01:10:04;2.92;;;1.60;;
47804;SDS011;33568;45.286;9.900;2022-07-10T01:12:31;3.25;;;1.67;;
47804;SDS011;33568;45.286;9.900;2022-07-10T01:14:58;2.35;;;1.50;;
47804;SDS011;33568;45.286;9.900;2022-07-10T01:17:25;2.13;;;1.60;;
47804;SDS011;33568;45.286;9.900;2022-07-10T01:19:51;2.83;;;1.50;;
47804;SDS011;33568;45.286;9.900;2022-07-10T01:22:18;2.72;;;1.73;;
47804;SDS011;33568;45.286;9.900;2022-07-10T01:24:44;3.28;;;1.63;;
47804;SDS011;33568;45.286;9.900;2022-07-10T01:27:11;5.43;;;1.77;;
47804;SDS011;33568;45.286;9.900;2022-07-10T01:29:37;4.35;;;1.70;;
47804;SDS011;33568;45.286;9.900;2022-07-10T01:32:04;4.55;;;1.88;;
47804;SDS011;33568;45.286;9.900;2022-07-10T01:34:32;3.10;;;1.40;;
47804;SDS011;33568;45.286;9.900;2022-07-10T01:36:59;3.38;;;1.83;;
47804;SDS011;33568;45.286;9.900;2022-07-10T01:39:25;4.60;;;1.60;;
47804;SDS011;33568;45.286;9.900;2022-07-10T01:41:52;4.60;;;1.80;;
47804;SDS011;33568;45.286;9.900;2022-07-10T01:44:18;7.18;;;2.08;;
47804;SDS011;33568;45.286;9.900;2022-07-10T01:46:45;3.55;;;1.50;;
47804;SDS011;33568;45.286;9.900;2022-07-10T01:49:12;5.45;;;1.90;;
47804;SDS011;33568;45.286;9.900;2022-07-10T01:51:39;3.53;;;2.00;;
47804;SDS011;33568;45.286;9.900;2022-07-10T01:54:06;2.35;;;1.65;;
47804;SDS011;33568;45.286;9.900;2022-07-10T01:56:33;3.67;;;1.55;;
47804;SDS011;33568;45.286;9.900;2022-07-10T01:58:59;3.42;;;1.90;;
47804;SDS011;33568;45.286;9.900;2022-07-10T02:01:27;2.65;;;1.73;;
47804;SDS011;33568;45.286;9.900;2022-07-10T02:03:53;3.75;;;1.70;;
47804;SDS011;33568;45.286;9.900;2022-07-10T02:06:39;4.30;;;2.20;;
47804;SDS011;33568;45.286;9.900;2022-07-10T02:09:05;4.05;;;1.48;;
47804;SDS011;33568;45.286;9.900;2022-07-10T02:11:32;6.55;;;1.90;;
47804;SDS011;33568;45.286;9.900;2022-07-10T02:13:58;2.40;;;1.50;;
47804;SDS011;33568;45.286;9.900;2022-07-10T02:16:25;3.70;;;1.75;;
47804;SDS011;33568;45.286;9.900;2022-07-10T02:18:51;3.42;;;1.65;;
47804;SDS011;33568;45.286;9.900;2022-07-10T02:21:18;2.30;;;1.58;;
47804;SDS011;33568;45.286;9.900;2022-07-10T02:23:46;6.72;;;1.92;;
47804;SDS011;33568;45.286;9.900;2022-07-10T02:26:12;2.97;;;1.90;;
47804;SDS011;33568;45.286;9.900;2022-07-10T02:28:40;3.53;;;2.08;;
47804;SDS011;33568;45.286;9.900;2022-07-10T02:31:06;4.35;;;1.88;;
47804;SDS011;33568;45.286;9.900;2022-07-10T02:33:35;3.60;;;2.05;;
47804;SDS011;33568;45.286;9.900;2022-07-10T02:36:03;4.47;;;1.73;;
47804;SDS011;33568;45.286;9.900;2022-07-10T02:38:30;4.10;;;1.90;;
47804;SDS011;33568;45.286;9.900;2022-07-10T02:40:57;3.28;;;1.70;;
47804;SDS011;33568;45.286;9.900;2022-07-10T02:43:25;3.58;;;1.70;;
47804;SDS011;33568;45.286;9.900;2022-07-10T02:45:52;3.78;;;2.25;;
47804;SDS011;33568;45.286;9.900;2022-07-10T02:48:18;4.13;;;1.40;;
47804;SDS011;33568;45.286;9.900;2022-07-10T02:50:45;4.00;;;2.10;;
47804;SDS011;33568;45.286;9.900;2022-07-10T02:53:11;4.45;;;1.48;;
47804;SDS011;33568;45.286;9.900;2022-07-10T02:55:38;3.08;;;1.80;;
47804;SDS011;33568;45.286;9.900;2022-07-10T02:58:04;3.42;;;2.08;;
47804;SDS011;33568;45.286;9.900;2022-07-10T03:00:31;3.35;;;1.65;;
47804;SDS011;33568;45.286;9.900;2022-07-10T03:02:58;8.23;;;2.60;;
47804;SDS011;33568;45.286;9.900;2022-07-10T03:05:24;7.47;;;2.25;;
47804;SDS011;33568;45.286;9.900;2022-07-10T03:07:51;4.32;;;2.75;;
47804;SDS011;33568;45.286;9.900;2022-07-10T03:10:17;3.30;;;1.73;;
47804;SDS011;33568;45.286;9.900;2022-07-10T03:12:44;5.30;;;1.70;;
47804;SDS011;33568;45.286;9.900;2022-07-10T03:15:10;3.83;;;2.60;;
47804;SDS011;33568;45.286;9.900;2022-07-10T03:17:37;4.28;;;2.55;;
47804;SDS011;33568;45.286;9.900;2022-07-10T03:20:04;6.72;;;2.08;;
47804;SDS011;33568;45.286;9.900;2022-07-10T03:22:31;3.17;;;1.92;;
47804;SDS011;33568;45.286;9.900;2022-07-10T03:24:58;3.78;;;2.25;;
47804;SDS011;33568;45.286;9.900;2022-07-10T03:27:26;4.97;;;3.08;;
47804;SDS011;33568;45.286;9.900;2022-07-10T03:29:52;5.43;;;2.50;;
47804;SDS011;33568;45.286;9.900;2022-07-10T03:32:19;8.77;;;3.83;;
47804;SDS011;33568;45.286;9.900;2022-07-10T03:34:46;10.63;;;3.13;;
47804;SDS011;33568;45.286;9.900;2022-07-10T03:37:14;12.15;;;3.88;;
47804;SDS011;33568;45.286;9.900;2022-07-10T03:39:40;7.65;;;4.20;;
47804;SDS011;33568;45.286;9.900;2022-07-10T03:42:08;7.88;;;4.97;;
47804;SDS011;33568;45.286;9.900;2022-07-10T03:44:34;10.45;;;3.60;;
47804;SDS011;33568;45.286;9.900;2022-07-10T03:47:00;6.85;;;4.05;;
47804;SDS011;33568;45.286;9.900;2022-07-10T03:49:27;9.05;;;3.50;;
47804;SDS011;33568;45.286;9.900;2022-07-10T03:51:54;3.88;;;2.97;;
47804;SDS011;33568;45.286;9.900;2022-07-10T03:54:20;8.93;;;3.45;;
47804;SDS011;33568;45.286;9.900;2022-07-10T03:56:48;10.77;;;3.00;;
47804;SDS011;33568;45.286;9.900;2022-07-10T03:59:35;6.80;;;3.80;;
47804;SDS011;33568;45.286;9.900;2022-07-10T04:02:01;9.38;;;3.60;;
47804;SDS011;33568;45.286;9.900;2022-07-10T04:04:28;4.22;;;2.80;;
47804;SDS011;33568;45.286;9.900;2022-07-10T04:06:55;5.03;;;4.00;;
47804;SDS011;33568;45.286;9.900;2022-07-10T04:09:21;7.65;;;3.55;;
47804;SDS011;33568;45.286;9.900;2022-07-10T04:11:48;5.35;;;3.33;;
47804;SDS011;33568;45.286;9.900;2022-07-10T04:14:16;5.88;;;3.00;;
47804;SDS011;33568;45.286;9.900;2022-07-10T04:16:43;8.45;;;3.60;;
47804;SDS011;33568;45.286;9.900;2022-07-10T04:19:09;7.20;;;3.63;;
47804;SDS011;33568;45.286;9.900;2022-07-10T04:21:36;8.13;;;3.72;;
47804;SDS011;33568;45.286;9.900;2022-07-10T04:24:03;10.70;;;4.03;;
47804;SDS011;33568;45.286;9.900;2022-07-10T04:26:31;10.55;;;4.15;;
47804;SDS011;33568;45.286;9.900;2022-07-10T04:28:57;10.45;;;3.72;;
47804;SDS011;33568;45.286;9.900;2022-07-10T04:31:24;6.78;;;3.15;;
47804;SDS011;33568;45.286;9.900;2022-07-10T04:33:50;10.52;;;3.45;;
47804;SDS011;33568;45.286;9.900;2022-07-10T04:36:16;6.50;;;3.08;;
47804;SDS011;33568;45.286;9.900;2022-07-10T04:38:44;4.22;;;2.95;;
47804;SDS011;33568;45.286;9.900;2022-07-10T04:41:10;10.55;;;3.42;;
47804;SDS011;33568;45.286;9.900;2022-07-10T04:43:37;7.28;;;2.88;;
47804;SDS011;33568;45.286;9.900;2022-07-10T04:46:03;9.15;;;4.15;;
47804;SDS011;33568;45.286;9.900;2022-07-10T04:48:32;5.35;;;2.83;;
47804;SDS011;33568;45.286;9.900;2022-07-10T04:50:59;9.50;;;3.40;;
47804;SDS011;33568;45.286;9.900;2022-07-10T04:53:26;9.50;;;3.45;;
47804;SDS011;33568;45.286;9.900;2022-07-10T04:55:52;8.70;;;3.80;;
47804;SDS011;33568;45.286;9.900;2022-07-10T04:58:19;4.03;;;2.55;;
47804;SDS011;33568;45.286;9.900;2022-07-10T05:00:46;6.68;;;2.50;;
47804;SDS011;33568;45.286;9.900;2022-07-10T05:03:12;5.25;;;3.25;;
47804;SDS011;33568;45.286;9.900;2022-07-10T05:05:42;7.82;;;2.63;;
47804;SDS011;33568;45.286;9.900;2022-07-10T05:08:09;5.72;;;3.08;;
47804;SDS011;33568;45.286;9.900;2022-07-10T05:10:36;4.60;;;2.83;;
47804;SDS011;33568;45.286;9.900;2022-07-10T05:13:02;10.07;;;3.55;;
47804;SDS011;33568;45.286;9.900;2022-07-10T05:15:28;5.47;;;3.05;;
47804;SDS011;33568;45.286;9.900;2022-07-10T05:17:55;6.93;;;3.17;;
47804;SDS011;33568;45.286;9.900;2022-07-10T05:20:21;5.03;;;3.35;;
47804;SDS011;33568;45.286;9.900;2022-07-10T05:22:48;5.88;;;2.70;;
47804;SDS011;33568;45.286;9.900;2022-07-10T05:25:14;8.00;;;3.05;;
47804;SDS011;33568;45.286;9.900;2022-07-10T05:27:41;7.43;;;3.20;;
47804;SDS011;33568;45.286;9.900;2022-07-10T05:30:10;3.95;;;2.80;;
47804;SDS011;33568;45.286;9.900;2022-07-10T05:32:45;5.82;;;3.47;;
47804;SDS011;33568;45.286;9.900;2022-07-10T05:35:13;14.88;;;4.15;;
47804;SDS011;33568;45.286;9.900;2022-07-10T05:37:40;10.43;;;2.97;;
47804;SDS011;33568;45.286;9.900;2022-07-10T05:40:07;4.40;;;2.42;;
47804;SDS011;33568;45.286;9.900;2022-07-10T05:42:34;5.30;;;2.63;;
47804;SDS011;33568;45.286;9.900;2022-07-10T05:45:01;5.47;;;2.38;;
47804;SDS011;33568;45.286;9.900;2022-07-10T05:47:27;5.13;;;2.58;;
47804;SDS011;33568;45.286;9.900;2022-07-10T05:49:55;6.18;;;3.00;;
47804;SDS011;33568;45.286;9.900;2022-07-10T05:52:22;7.43;;;2.60;;
47804;SDS011;33568;45.286;9.900;2022-07-10T05:54:48;5.07;;;2.55;;
47804;SDS011;33568;45.286;9.900;2022-07-10T05:57:15;9.35;;;2.65;;
47804;SDS011;33568;45.286;9.900;2022-07-10T05:59:42;7.50;;;2.80;;
47804;SDS011;33568;45.286;9.900;2022-07-10T06:02:08;3.83;;;2.38;;
47804;SDS011;33568;45.286;9.900;2022-07-10T06:04:34;8.82;;;3.10;;
47804;SDS011;33568;45.286;9.900;2022-07-10T06:07:01;5.85;;;2.60;;
47804;SDS011;33568;45.286;9.900;2022-07-10T06:09:28;7.50;;;3.65;;
47804;SDS011;33568;45.286;9.900;2022-07-10T06:11:54;6.70;;;3.40;;
47804;SDS011;33568;45.286;9.900;2022-07-10T06:14:22;7.55;;;2.55;;
47804;SDS011;33568;45.286;9.900;2022-07-10T06:16:48;10.52;;;2.60;;
47804;SDS011;33568;45.286;9.900;2022-07-10T06:19:15;6.22;;;2.85;;
47804;SDS011;33568;45.286;9.900;2022-07-10T06:21:43;7.57;;;3.47;;
47804;SDS011;33568;45.286;9.900;2022-07-10T06:24:10;6.40;;;3.33;;
47804;SDS011;33568;45.286;9.900;2022-07-10T06:26:36;10.15;;;3.15;;
47804;SDS011;33568;45.286;9.900;2022-07-10T06:29:03;7.15;;;3.25;;
47804;SDS011;33568;45.286;9.900;2022-07-10T06:31:29;9.75;;;3.47;;
47804;SDS011;33568;45.286;9.900;2022-07-10T06:33:58;11.73;;;4.35;;
47804;SDS011;33568;45.286;9.900;2022-07-10T06:36:24;10.70;;;2.88;;
47804;SDS011;33568;45.286;9.900;2022-07-10T06:38:52;5.03;;;3.20;;
47804;SDS011;33568;45.286;9.900;2022-07-10T06:41:20;7.63;;;3.00;;
47804;SDS011;33568;45.286;9.900;2022-07-10T06:43:46;20.00;;;4.82;;
47804;SDS011;33568;45.286;9.900;2022-07-10T06:46:13;5.55;;;2.90;;
47804;SDS011;33568;45.286;9.900;2022-07-10T06:48:39;9.05;;;3.40;;
47804;SDS011;33568;45.286;9.900;2022-07-10T06:51:06;7.70;;;2.70;;
47804;SDS011;33568;45.286;9.900;2022-07-10T06:53:33;6.38;;;2.60;;
47804;SDS011;33568;45.286;9.900;2022-07-10T06:56:00;7.72;;;2.55;;
47804;SDS011;33568;45.286;9.900;2022-07-10T06:58:26;13.55;;;3.35;;
47804;SDS011;33568;45.286;9.900;2022-07-10T07:00:53;8.68;;;2.67;;
47804;SDS011;33568;45.286;9.900;2022-07-10T07:03:19;6.05;;;3.20;;
47804;SDS011;33568;45.286;9.900;2022-07-10T07:05:45;14.60;;;2.90;;
47804;SDS011;33568;45.286;9.900;2022-07-10T07:08:12;5.85;;;2.72;;
47804;SDS011;33568;45.286;9.900;2022-07-10T07:10:39;4.97;;;2.50;;
47804;SDS011;33568;45.286;9.900;2022-07-10T07:13:05;7.10;;;2.70;;
47804;SDS011;33568;45.286;9.900;2022-07-10T07:15:32;3.47;;;2.53;;
47804;SDS011;33568;45.286;9.900;2022-07-10T07:18:06;8.18;;;2.47;;
47804;SDS011;33568;45.286;9.900;2022-07-10T07:20:38;6.15;;;2.33;;
47804;SDS011;33568;45.286;9.900;2022-07-10T07:23:24;5.30;;;2.50;;
47804;SDS011;33568;45.286;9.900;2022-07-10T07:25:50;4.38;;;2.60;;
47804;SDS011;33568;45.286;9.900;2022-07-10T07:28:17;7.03;;;2.60;;
47804;SDS011;33568;45.286;9.900;2022-07-10T07:30:45;3.30;;;1.40;;
47804;SDS011;33568;45.286;9.900;2022-07-10T07:33:13;5.18;;;1.70;;
47804;SDS011;33568;45.286;9.900;2022-07-10T07:35:39;5.75;;;1.63;;
47804;SDS011;33568;45.286;9.900;2022-07-10T07:38:07;2.10;;;1.60;;
47804;SDS011;33568;45.286;9.900;2022-07-10T07:40:33;4.80;;;1.50;;
47804;SDS011;33568;45.286;9.900;2022-07-10T07:43:01;6.28;;;1.52;;
47804;SDS011;33568;45.286;9.900;2022-07-10T07:45:27;3.70;;;1.40;;
47804;SDS011;33568;45.286;9.900;2022-07-10T07:47:54;8.65;;;1.58;;
47804;SDS011;33568;45.286;9.900;2022-07-10T07:50:23;3.72;;;1.30;;
47804;SDS011;33568;45.286;9.900;2022-07-10T07:52:54;4.75;;;1.80;;
47804;SDS011;33568;45.286;9.900;2022-07-10T07:55:21;5.32;;;1.38;;
47804;SDS011;33568;45.286;9.900;2022-07-10T07:57:52;2.72;;;1.20;;
47804;SDS011;33568;45.286;9.900;2022-07-10T08:00:23;4.75;;;1.45;;
47804;SDS011;33568;45.286;9.900;2022-07-10T08:02:51;4.05;;;1.38;;
47804;SDS011;33568;45.286;9.900;2022-07-10T08:05:18;4.68;;;1.98;;
47804;SDS011;33568;45.286;9.900;2022-07-10T08:07:48;4.32;;;2.13;;
47804;SDS011;33568;45.286;9.900;2022-07-10T08:10:17;4.13;;;1.63;;
47804;SDS011;33568;45.286;9.900;2022-07-10T08:12:45;2.58;;;1.35;;
47804;SDS011;33568;45.286;9.900;2022-07-10T08:15:14;3.60;;;1.77;;
47804;SDS011;33568;45.286;9.900;2022-07-10T08:17:51;4.20;;;1.77;;
47804;SDS011;33568;45.286;9.900;2022-07-10T08:20:20;8.75;;;1.88;;
47804;SDS011;33568;45.286;9.900;2022-07-10T08:22:46;3.45;;;1.50;;
47804;SDS011;33568;45.286;9.900;2022-07-10T08:25:16;7.90;;;1.67;;
47804;SDS011;33568;45.286;9.900;2022-07-10T08:27:42;6.18;;;1.77;;
47804;SDS011;33568;45.286;9.900;2022-07-10T08:30:09;4.28;;;1.40;;
47804;SDS011;33568;45.286;9.900;2022-07-10T08:32:39;2.28;;;1.40;;
47804;SDS011;33568;45.286;9.900;2022-07-10T08:35:07;10.02;;;1.83;;
47804;SDS011;33568;45.286;9.900;2022-07-10T08:37:38;9.20;;;1.70;;
47804;SDS011;33568;45.286;9.900;2022-07-10T08:40:09;9.50;;;2.20;;
47804;SDS011;33568;45.286;9.900;2022-07-10T08:42:38;3.55;;;1.60;;
47804;SDS011;33568;45.286;9.900;2022-07-10T08:45:07;3.58;;;1.45;;
47804;SDS011;33568;45.286;9.900;2022-07-10T08:47:34;4.95;;;1.70;;
47804;SDS011;33568;45.286;9.900;2022-07-10T08:50:01;5.72;;;1.55;;
47804;SDS011;33568;45.286;9.900;2022-07-10T08:52:31;3.88;;;1.15;;
47804;SDS011;33568;45.286;9.900;2022-07-10T08:55:04;2.30;;;1.23;;
47804;SDS011;33568;45.286;9.900;2022-07-10T08:57:31;4.75;;;1.25;;
47804;SDS011;33568;45.286;9.900;2022-07-10T09:00:00;5.00;;;1.40;;
47804;SDS011;33568;45.286;9.900;2022-07-10T09:02:26;2.00;;;1.23;;
47804;SDS011;33568;45.286;9.900;2022-07-10T09:04:56;7.30;;;1.73;;
47804;SDS011;33568;45.286;9.900;2022-07-10T09:07:23;4.43;;;1.58;;
47804;SDS011;33568;45.286;9.900;2022-07-10T09:09:56;10.98;;;1.83;;
47804;SDS011;33568;45.286;9.900;2022-07-10T09:12:24;5.07;;;1.85;;
47804;SDS011;33568;45.286;9.900;2022-07-10T09:14:51;3.38;;;2.15;;
47804;SDS011;33568;45.286;9.900;2022-07-10T09:17:18;6.38;;;1.60;;
47804;SDS011;33568;45.286;9.900;2022-07-10T09:19:46;6.93;;;1.85;;
47804;SDS011;33568;45.286;9.900;2022-07-10T09:22:13;5.05;;;1.83;;
47804;SDS011;33568;45.286;9.900;2022-07-10T09:24:45;2.47;;;1.50;;
47804;SDS011;33568;45.286;9.900;2022-07-10T09:27:13;6.07;;;1.60;;
47804;SDS011;33568;45.286;9.900;2022-07-10T09:29:51;4.72;;;1.48;;
47804;SDS011;33568;45.286;9.900;2022-07-10T09:32:25;3.72;;;1.48;;
47804;SDS011;33568;45.286;9.900;2022-07-10T09:34:52;1.98;;;1.33;;
47804;SDS011;33568;45.286;9.900;2022-07-10T09:37:39;3.50;;;1.67;;
47804;SDS011;33568;45.286;9.900;2022-07-10T09:40:07;5.32;;;1.73;;
47804;SDS011;33568;45.286;9.900;2022-07-10T09:42:38;3.53;;;1.80;;
47804;SDS011;33568;45.286;9.900;2022-07-10T09:45:14;6.15;;;2.10;;
47804;SDS011;33568;45.286;9.900;2022-07-10T09:50:20;2.75;;;1.55;;
47804;SDS011;33568;45.286;9.900;2022-07-10T09:53:01;2.08;;;1.40;;
47804;SDS011;33568;45.286;9.900;2022-07-10T09:55:35;2.20;;;1.35;;
47804;SDS011;33568;45.286;9.900;2022-07-10T09:58:03;3.17;;;1.50;;
47804;SDS011;33568;45.286;9.900;2022-07-10T10:00:37;7.28;;;1.50;;
47804;SDS011;33568;45.286;9.900;2022-07-10T10:03:06;3.28;;;1.92;;
47804;SDS011;33568;45.286;9.900;2022-07-10T10:05:43;4.32;;;1.27;;
47804;SDS011;33568;45.286;9.900;2022-07-10T10:08:17;8.18;;;1.67;;
47804;SDS011;33568;45.286;9.900;2022-07-10T10:10:46;4.32;;;1.58;;
47804;SDS011;33568;45.286;9.900;2022-07-10T10:13:18;8.77;;;1.80;;
47804;SDS011;33568;45.286;9.900;2022-07-10T10:15:47;3.70;;;1.60;;
47804;SDS011;33568;45.286;9.900;2022-07-10T10:18:18;3.83;;;1.40;;
47804;SDS011;33568;45.286;9.900;2022-07-10T10:20:46;5.03;;;1.73;;
47804;SDS011;33568;45.286;9.900;2022-07-10T10:23:15;3.22;;;1.67;;
47804;SDS011;33568;45.286;9.900;2022-07-10T10:25:43;3.08;;;1.20;;
47804;SDS011;33568;45.286;9.900;2022-07-10T10:28:10;3.75;;;1.30;;
47804;SDS011;33568;45.286;9.900;2022-07-10T10:30:39;3.67;;;1.30;;
47804;SDS011;33568;45.286;9.900;2022-07-10T10:36:09;1.65;;;1.08;;
47804;SDS011;33568;45.286;9.900;2022-07-10T10:41:23;6.70;;;1.20;;
47804;SDS011;33568;45.286;9.900;2022-07-10T10:46:35;1.50;;;1.10;;
47804;SDS011;33568;45.286;9.900;2022-07-10T10:49:21;2.63;;;1.60;;
47804;SDS011;33568;45.286;9.900;2022-07-10T10:52:04;3.80;;;1.38;;
47804;SDS011;33568;45.286;9.900;2022-07-10T10:59:59;2.55;;;1.27;;
47804;SDS011;33568;45.286;9.900;2022-07-10T11:02:26;3.25;;;1.20;;
47804;SDS011;33568;45.286;9.900;2022-07-10T11:13:10;3.80;;;1.42;;
47804;SDS011;33568;45.286;9.900;2022-07-10T11:15:39;3.08;;;1.10;;
47804;SDS011;33568;45.286;9.900;2022-07-10T11:18:11;2.75;;;1.60;;
47804;SDS011;33568;45.286;9.900;2022-07-10T11:20:43;3.60;;;1.45;;
47804;SDS011;33568;45.286;9.900;2022-07-10T11:29:06;3.05;;;1.52;;
47804;SDS011;33568;45.286;9.900;2022-07-10T11:31:33;1.95;;;1.40;;
47804;SDS011;33568;45.286;9.900;2022-07-10T11:34:07;3.15;;;1.50;;
47804;SDS011;33568;45.286;9.900;2022-07-10T11:36:34;2.67;;;1.40;;
47804;SDS011;33568;45.286;9.900;2022-07-10T11:39:03;5.53;;;1.40;;
47804;SDS011;33568;45.286;9.900;2022-07-10T11:41:31;1.83;;;1.17;;
47804;SDS011;33568;45.286;9.900;2022-07-10T11:43:59;3.78;;;1.17;;
47804;SDS011;33568;45.286;9.900;2022-07-10T11:46:30;3.97;;;1.85;;
47804;SDS011;33568;45.286;9.900;2022-07-10T11:48:59;2.83;;;1.27;;
47804;SDS011;33568;45.286;9.900;2022-07-10T11:51:34;5.78;;;1.70;;
47804;SDS011;33568;45.286;9.900;2022-07-10T11:54:07;3.05;;;1.90;;
47804;SDS011;33568;45.286;9.900;2022-07-10T11:56:39;1.30;;;1.20;;
47804;SDS011;33568;45.286;9.900;2022-07-10T11:59:08;2.92;;;1.10;;
47804;SDS011;33568;45.286;9.900;2022-07-10T12:01:49;1.17;;;1.05;;
47804;SDS011;33568;45.286;9.900;2022-07-10T12:04:17;3.70;;;2.30;;
47804;SDS011;33568;45.286;9.900;2022-07-10T12:06:47;2.22;;;1.55;;
47804;SDS011;33568;45.286;9.900;2022-07-10T12:09:15;2.35;;;1.40;;
47804;SDS011;33568;45.286;9.900;2022-07-10T12:11:44;3.33;;;1.20;;
47804;SDS011;33568;45.286;9.900;2022-07-10T12:14:25;4.15;;;1.40;;
47804;SDS011;33568;45.286;9.900;2022-07-10T12:16:52;2.03;;;1.20;;
47804;SDS011;33568;45.286;9.900;2022-07-10T12:19:27;2.00;;;1.30;;
47804;SDS011;33568;45.286;9.900;2022-07-10T12:21:59;2.88;;;1.40;;
47804;SDS011;33568;45.286;9.900;2022-07-10T12:24:27;3.33;;;1.27;;
47804;SDS011;33568;45.286;9.900;2022-07-10T12:26:54;4.55;;;1.10;;
47804;SDS011;33568;45.286;9.900;2022-07-10T12:29:24;2.72;;;0.80;;
47804;SDS011;33568;45.286;9.900;2022-07-10T12:31:52;3.45;;;1.30;;
47804;SDS011;33568;45.286;9.900;2022-07-10T12:34:32;1.02;;;1.00;;
47804;SDS011;33568;45.286;9.900;2022-07-10T12:37:09;7.43;;;1.17;;
47804;SDS011;33568;45.286;9.900;2022-07-10T12:39:38;4.82;;;1.10;;
47804;SDS011;33568;45.286;9.900;2022-07-10T12:42:13;9.27;;;1.40;;
47804;SDS011;33568;45.286;9.900;2022-07-10T12:44:41;2.05;;;1.20;;
47804;SDS011;33568;45.286;9.900;2022-07-10T12:47:12;1.48;;;1.00;;
47804;SDS011;33568;45.286;9.900;2022-07-10T12:57:52;4.25;;;1.02;;
47804;SDS011;33568;45.286;9.900;2022-07-10T13:00:43;1.83;;;1.30;;
47804;SDS011;33568;45.286;9.900;2022-07-10T13:03:16;1.77;;;1.10;;
47804;SDS011;33568;45.286;9.900;2022-07-10T13:05:44;3.70;;;1.30;;
47804;SDS011;33568;45.286;9.900;2022-07-10T13:08:12;3.72;;;1.08;;
47804;SDS011;33568;45.286;9.900;2022-07-10T13:10:42;3.10;;;1.30;;
47804;SDS011;33568;45.286;9.900;2022-07-10T13:13:10;1.35;;;1.25;;
47804;SDS011;33568;45.286;9.900;2022-07-10T13:15:37;1.20;;;1.00;;
47804;SDS011;33568;45.286;9.900;2022-07-10T13:18:14;2.47;;;1.10;;
47804;SDS011;33568;45.286;9.900;2022-07-10T13:20:45;5.28;;;1.50;;
47804;SDS011;33568;45.286;9.900;2022-07-10T13:23:12;3.58;;;1.30;;
47804;SDS011;33568;45.286;9.900;2022-07-10T13:25:39;1.70;;;1.30;;
47804;SDS011;33568;45.286;9.900;2022-07-10T13:28:07;2.80;;;1.23;;
47804;SDS011;33568;45.286;9.900;2022-07-10T13:30:36;2.67;;;1.08;;
47804;SDS011;33568;45.286;9.900;2022-07-10T13:33:02;1.60;;;1.13;;
47804;SDS011;33568;45.286;9.900;2022-07-10T13:35:30;1.92;;;1.17;;
47804;SDS011;33568;45.286;9.900;2022-07-10T13:37:58;1.33;;;1.23;;
47804;SDS011;33568;45.286;9.900;2022-07-10T13:40:27;1.10;;;1.00;;
47804;SDS011;33568;45.286;9.900;2022-07-10T13:42:54;2.28;;;1.20;;
47804;SDS011;33568;45.286;9.900;2022-07-10T13:45:22;2.53;;;1.38;;
47804;SDS011;33568;45.286;9.900;2022-07-10T13:47:50;2.00;;;1.10;;
47804;SDS011;33568;45.286;9.900;2022-07-10T13:50:22;1.90;;;1.25;;
47804;SDS011;33568;45.286;9.900;2022-07-10T13:52:48;1.05;;;0.93;;
47804;SDS011;33568;45.286;9.900;2022-07-10T13:55:15;3.65;;;1.20;;
47804;SDS011;33568;45.286;9.900;2022-07-10T13:57:43;2.78;;;1.25;;
47804;SDS011;33568;45.286;9.900;2022-07-10T14:00:10;2.22;;;1.20;;
47804;SDS011;33568;45.286;9.900;2022-07-10T14:02:38;1.90;;;1.10;;
47804;SDS011;33568;45.286;9.900;2022-07-10T14:05:05;1.65;;;1.00;;
47804;SDS011;33568;45.286;9.900;2022-07-10T14:07:33;1.25;;;1.10;;
47804;SDS011;33568;45.286;9.900;2022-07-10T14:10:00;1.17;;;1.00;;
47804;SDS011;33568;45.286;9.900;2022-07-10T14:12:27;1.30;;;1.20;;
47804;SDS011;33568;45.286;9.900;2022-07-10T14:14:54;1.92;;;1.17;;
47804;SDS011;33568;45.286;9.900;2022-07-10T14:17:20;2.17;;;1.13;;
47804;SDS011;33568;45.286;9.900;2022-07-10T14:19:47;1.70;;;1.20;;
47804;SDS011;33568;45.286;9.900;2022-07-10T14:22:13;3.33;;;1.40;;
47804;SDS011;33568;45.286;9.900;2022-07-10T14:24:40;2.15;;;1.20;;
47804;SDS011;33568;45.286;9.900;2022-07-10T14:27:06;1.85;;;1.20;;
47804;SDS011;33568;45.286;9.900;2022-07-10T14:29:33;1.92;;;1.00;;
47804;SDS011;33568;45.286;9.900;2022-07-10T14:31:59;1.65;;;0.95;;
47804;SDS011;33568;45.286;9.900;2022-07-10T14:34:26;1.85;;;1.05;;
47804;SDS011;33568;45.286;9.900;2022-07-10T14:36:56;4.95;;;1.02;;
47804;SDS011;33568;45.286;9.900;2022-07-10T14:39:22;2.15;;;1.00;;
47804;SDS011;33568;45.286;9.900;2022-07-10T14:41:49;2.58;;;1.00;;
47804;SDS011;33568;45.286;9.900;2022-07-10T14:44:15;1.13;;;1.02;;
47804;SDS011;33568;45.286;9.900;2022-07-10T14:46:42;4.03;;;1.27;;
47804;SDS011;33568;45.286;9.900;2022-07-10T14:49:08;3.42;;;1.30;;
47804;SDS011;33568;45.286;9.900;2022-07-10T14:51:38;4.18;;;0.90;;
47804;SDS011;33568;45.286;9.900;2022-07-10T14:54:05;0.90;;;0.90;;
47804;SDS011;33568;45.286;9.900;2022-07-10T14:56:31;1.85;;;1.17;;
47804;SDS011;33568;45.286;9.900;2022-07-10T14:58:58;2.03;;;1.10;;
47804;SDS011;33568;45.286;9.900;2022-07-10T15:01:24;1.48;;;1.00;;
47804;SDS011;33568;45.286;9.900;2022-07-10T15:03:50;2.00;;;1.00;;
47804;SDS011;33568;45.286;9.900;2022-07-10T15:06:18;0.90;;;0.90;;
47804;SDS011;33568;45.286;9.900;2022-07-10T15:08:45;4.55;;;1.27;;
47804;SDS011;33568;45.286;9.900;2022-07-10T15:11:14;2.88;;;0.90;;
47804;SDS011;33568;45.286;9.900;2022-07-10T15:13:40;1.92;;;0.90;;
47804;SDS011;33568;45.286;9.900;2022-07-10T15:16:07;1.55;;;1.25;;
47804;SDS011;33568;45.286;9.900;2022-07-10T15:18:34;14.23;;;2.10;;
47804;SDS011;33568;45.286;9.900;2022-07-10T15:21:01;1.67;;;1.10;;
47804;SDS011;33568;45.286;9.900;2022-07-10T15:23:28;2.95;;;1.00;;
47804;SDS011;33568;45.286;9.900;2022-07-10T15:25:55;1.50;;;1.10;;
47804;SDS011;33568;45.286;9.900;2022-07-10T15:28:21;1.15;;;1.05;;
47804;SDS011;33568;45.286;9.900;2022-07-10T15:30:48;41.42;;;3.38;;
47804;SDS011;33568;45.286;9.900;2022-07-10T15:33:14;0.80;;;0.80;;